createdAt,value
2018-09-03T00:02:27.259Z,100714.58
2018-09-03T00:04:55.061Z,100702.69
2018-09-03T00:07:22.867Z,100693.86
2018-09-03T00:09:50.715Z,100680.59
2018-09-03T00:12:18.528Z,100686.38
2018-09-03T00:14:46.344Z,100686.36
2018-09-03T00:17:14.147Z,100682.49
2018-09-03T00:19:41.876Z,100678.05
2018-09-03T00:22:09.724Z,100678.60
2018-09-03T00:24:37.547Z,100683.84
2018-09-03T00:27:05.307Z,100684.13
2018-09-03T00:29:33.198Z,100682.77
2018-09-03T00:32:06.831Z,100682.49
2018-09-03T00:34:40.447Z,100687.77
2018-09-03T00:37:14.019Z,100681.14
2018-09-03T00:39:47.499Z,100682.49
2018-09-03T00:42:21.023Z,100689.42
2018-09-03T00:44:54.668Z,100695.48
2018-09-03T00:47:22.512Z,100696.62
2018-09-03T00:49:50.483Z,100704.90
2018-09-03T00:52:18.330Z,100705.75
2018-09-03T00:54:46.201Z,100715.69
2018-09-03T00:57:13.927Z,100709.86
2018-09-03T00:59:41.742Z,100706.86
2018-09-03T01:02:09.637Z,100689.16
2018-09-03T01:04:37.410Z,100690.55
2018-09-03T01:07:05.340Z,100695.55
2018-09-03T01:09:33.168Z,100698.58
2018-09-03T01:12:01.023Z,100695.55
2018-09-03T01:14:28.886Z,100699.69
2018-09-03T01:16:56.670Z,100696.67
2018-09-03T01:19:24.495Z,100691.42
2018-09-03T01:21:52.340Z,100689.21
2018-09-03T01:24:20.180Z,100693.08
2018-09-03T01:26:47.988Z,100691.14
2018-09-03T01:29:15.814Z,100699.43
2018-09-03T01:31:43.603Z,100704.12
2018-09-03T01:34:11.464Z,100705.78
2018-09-03T01:36:39.349Z,100711.84
2018-09-03T01:39:08.252Z,100712.95
2018-09-03T01:41:36.047Z,100707.44
2018-09-03T01:44:03.892Z,100699.42
2018-09-03T01:46:31.741Z,100703.84
2018-09-03T01:48:59.588Z,100700.53
2018-09-03T01:51:27.348Z,100698.88
2018-09-03T01:53:55.147Z,100697.22
2018-09-03T01:56:23.000Z,100701.36
2018-09-03T01:58:50.748Z,100696.94
2018-09-03T02:01:18.523Z,100696.66
2018-09-03T02:03:46.355Z,100698.06
2018-09-03T02:06:14.147Z,100689.51
2018-09-03T02:08:42.016Z,100689.48
2018-09-03T02:11:09.847Z,100688.66
2018-09-03T02:13:37.746Z,100686.73
2018-09-03T02:16:05.470Z,100692.50
2018-09-03T02:18:33.283Z,100689.49
2018-09-03T02:21:01.123Z,100681.20
2018-09-03T02:23:28.925Z,100680.94
2018-09-03T02:25:56.787Z,100690.84
2018-09-03T02:28:24.635Z,100691.41
2018-09-03T02:30:52.442Z,100691.97
2018-09-03T02:33:20.227Z,100694.44
2018-09-03T02:35:48.054Z,100690.02
2018-09-03T02:38:15.835Z,100695.82
2018-09-03T02:40:43.664Z,100688.62
2018-09-03T02:43:11.510Z,100688.37
2018-09-03T02:45:39.321Z,100692.17
2018-09-03T02:48:07.215Z,100694.98
2018-09-03T02:50:35.179Z,100689.14
2018-09-03T02:53:03.020Z,100690.77
2018-09-03T02:55:30.787Z,100684.73
2018-09-03T02:57:58.543Z,100686.36
2018-09-03T03:00:27.084Z,100681.95
2018-09-03T03:02:56.584Z,100675.84
2018-09-03T03:05:24.851Z,100672.26
2018-09-03T03:07:52.705Z,100670.60
2018-09-03T03:10:20.547Z,100660.36
2018-09-03T03:12:48.496Z,100660.37
2018-09-03T03:15:16.355Z,100645.75
2018-09-03T03:17:44.211Z,100650.98
2018-09-03T03:20:12.063Z,100644.34
2018-09-03T03:22:39.849Z,100642.92
2018-09-03T03:25:07.703Z,100634.13
2018-09-03T03:27:35.558Z,100629.14
2018-09-03T03:30:03.444Z,100618.66
2018-09-03T03:32:31.191Z,100608.73
2018-09-03T03:34:58.998Z,100604.84
2018-09-03T03:37:26.873Z,100591.84
2018-09-03T03:39:54.584Z,100585.23
2018-09-03T03:42:22.452Z,100584.70
2018-09-03T03:44:50.267Z,100590.71
2018-09-03T03:47:18.084Z,100586.88
2018-09-03T03:49:45.947Z,100594.58
2018-09-03T03:52:13.724Z,100593.75
2018-09-03T03:54:41.543Z,100589.89
2018-09-03T03:57:09.340Z,100587.41
2018-09-03T03:59:37.110Z,100589.33
2018-09-03T04:02:05.212Z,100594.03
2018-09-03T04:04:33.051Z,100595.12
2018-09-03T04:07:00.897Z,100588.75
2018-09-03T04:09:28.752Z,100592.89
2018-09-03T04:11:56.497Z,100595.92
2018-09-03T04:14:24.325Z,100604.20
2018-09-03T04:16:52.124Z,100603.92
2018-09-03T04:19:19.972Z,100604.20
2018-09-03T04:21:47.828Z,100599.23
2018-09-03T04:24:15.576Z,100600.61
2018-09-03T04:26:43.357Z,100603.64
2018-09-03T04:29:11.298Z,100597.30
2018-09-03T04:31:39.107Z,100590.69
2018-09-03T04:34:06.885Z,100581.31
2018-09-03T04:36:34.655Z,100577.45
2018-09-03T04:39:03.690Z,100586.27
2018-09-03T04:41:31.403Z,100582.97
2018-09-03T04:43:59.275Z,100588.75
2018-09-03T04:46:27.159Z,100590.13
2018-09-03T04:48:54.987Z,100597.30
2018-09-03T04:51:22.811Z,100600.06
2018-09-03T04:53:50.597Z,100600.34
2018-09-03T04:56:18.388Z,100597.03
2018-09-03T04:58:46.229Z,100602.54
2018-09-03T05:01:14.027Z,100598.69
2018-09-03T05:03:41.924Z,100606.13
2018-09-03T05:06:10.010Z,100606.95
2018-09-03T05:08:37.787Z,100618.26
2018-09-03T05:11:05.584Z,100621.02
2018-09-03T05:13:33.418Z,100620.22
2018-09-03T05:16:01.252Z,100626.28
2018-09-03T05:18:29.105Z,100630.15
2018-09-03T05:20:56.855Z,100629.87
2018-09-03T05:23:24.664Z,100614.98
2018-09-03T05:25:52.470Z,100614.73
2018-09-03T05:28:20.200Z,100611.70
2018-09-03T05:30:48.186Z,100612.80
2018-09-03T05:33:15.982Z,100608.70
2018-09-03T05:35:43.810Z,100615.63
2018-09-03T05:38:11.684Z,100620.86
2018-09-03T05:40:39.627Z,100615.63
2018-09-03T05:43:07.509Z,100618.38
2018-09-03T05:45:35.347Z,100614.52
2018-09-03T05:48:04.383Z,100607.38
2018-09-03T05:50:32.242Z,100606.00
2018-09-03T05:53:00.067Z,100604.06
2018-09-03T05:55:27.979Z,100614.82
2018-09-03T05:57:55.799Z,100607.95
2018-09-03T06:00:23.670Z,100607.13
2018-09-03T06:02:51.531Z,100613.73
2018-09-03T06:05:19.423Z,100609.61
2018-09-03T06:07:47.409Z,100605.48
2018-09-03T06:10:15.239Z,100611.28
2018-09-03T06:12:43.374Z,100613.23
2018-09-03T06:15:11.566Z,100614.64
2018-09-03T06:17:39.851Z,100609.95
2018-09-03T06:20:07.688Z,100604.41
2018-09-03T06:22:35.667Z,100595.05
2018-09-03T06:25:03.730Z,100601.98
2018-09-03T06:27:31.582Z,100597.00
2018-09-03T06:29:59.584Z,100598.12
2018-09-03T06:32:27.463Z,100596.17
2018-09-03T06:34:55.283Z,100597.58
2018-09-03T06:37:23.064Z,100585.73
2018-09-03T06:39:50.875Z,100586.84
2018-09-03T06:42:18.727Z,100590.41
2018-09-03T06:44:46.535Z,100592.08
2018-09-03T06:47:14.517Z,100602.00
2018-09-03T06:49:42.395Z,100596.22
2018-09-03T06:52:10.232Z,100589.58
2018-09-03T06:54:38.112Z,100585.16
2018-09-03T06:57:06.548Z,100584.34
2018-09-03T06:59:34.427Z,100586.30
2018-09-03T07:02:02.291Z,100587.40
2018-09-03T07:04:30.123Z,100587.39
2018-09-03T07:06:58.128Z,100596.79
2018-09-03T07:09:26.012Z,100600.08
2018-09-03T07:11:53.793Z,100601.48
2018-09-03T07:14:21.668Z,100601.45
2018-09-03T07:16:49.505Z,100595.63
2018-09-03T07:19:17.303Z,100594.23
2018-09-03T07:21:45.137Z,100593.41
2018-09-03T07:24:12.933Z,100599.20
2018-09-03T07:26:40.790Z,100609.96
2018-09-03T07:29:08.643Z,100608.02
2018-09-03T07:31:36.521Z,100602.50
2018-09-03T07:34:04.320Z,100595.83
2018-09-03T07:36:32.199Z,100595.30
2018-09-03T07:39:00.036Z,100609.38
2018-09-03T07:41:27.888Z,100600.80
2018-09-03T07:43:55.744Z,100590.53
2018-09-03T07:46:23.602Z,100592.17
2018-09-03T07:48:51.438Z,100590.23
2018-09-03T07:51:19.263Z,100588.82
2018-09-03T07:53:47.095Z,100586.02
2018-09-03T07:56:14.995Z,100588.47
2018-09-03T07:58:42.844Z,100583.73
2018-09-03T08:01:10.694Z,100581.22
2018-09-03T08:03:38.476Z,100579.85
2018-09-03T08:06:06.361Z,100576.70
2018-09-03T08:08:34.193Z,100575.02
2018-09-03T08:11:01.999Z,100582.67
2018-09-03T08:13:35.832Z,100570.22
2018-09-03T08:16:04.243Z,100567.91
2018-09-03T08:18:32.037Z,100569.83
2018-09-03T08:20:59.844Z,100565.64
2018-09-03T08:23:27.707Z,100563.89
2018-09-03T08:25:55.512Z,100568.27
2018-09-03T08:28:23.420Z,100560.78
2018-09-03T08:30:51.216Z,100561.59
2018-09-03T08:33:18.992Z,100558.42
2018-09-03T08:35:46.864Z,100560.89
2018-09-03T08:38:14.644Z,100559.80
2018-09-03T08:40:42.527Z,100563.02
2018-09-03T08:43:10.360Z,100568.22
2018-09-03T08:45:38.224Z,100562.88
2018-09-03T08:48:06.029Z,100565.05
2018-09-03T08:50:33.872Z,100565.74
2018-09-03T08:53:01.715Z,100562.91
2018-09-03T08:55:29.524Z,100564.83
2018-09-03T08:57:57.386Z,100565.24
2018-09-03T09:00:25.192Z,100562.87
2018-09-03T09:02:53.060Z,100563.00
2018-09-03T09:05:20.885Z,100557.62
2018-09-03T09:07:48.697Z,100556.55
2018-09-03T09:10:16.512Z,100552.08
2018-09-03T09:12:44.335Z,100549.05
2018-09-03T09:15:12.204Z,100544.47
2018-09-03T09:17:40.453Z,100532.99
2018-09-03T09:20:08.537Z,100530.28
2018-09-03T09:22:36.406Z,100535.33
2018-09-03T09:25:04.470Z,100536.45
2018-09-03T09:27:32.314Z,100535.87
2018-09-03T09:30:00.131Z,100534.99
2018-09-03T09:32:27.928Z,100538.63
2018-09-03T09:34:55.723Z,100542.39
2018-09-03T09:37:23.507Z,100538.46
2018-09-03T09:39:51.312Z,100533.81
2018-09-03T09:42:19.107Z,100536.78
2018-09-03T09:44:46.968Z,100537.88
2018-09-03T09:47:14.861Z,100539.96
2018-09-03T09:49:43.496Z,100539.25
2018-09-03T09:52:11.307Z,100540.75
2018-09-03T09:54:39.291Z,100534.11
2018-09-03T09:57:07.051Z,100531.62
2018-09-03T09:59:34.831Z,100526.12
2018-09-03T10:02:03.343Z,100522.08
2018-09-03T10:04:31.193Z,100521.72
2018-09-03T10:06:58.999Z,100509.67
2018-09-03T10:09:26.803Z,100510.00
2018-09-03T10:11:54.632Z,100512.45
2018-09-03T10:14:22.457Z,100509.78
2018-09-03T10:16:50.323Z,100507.71
2018-09-03T10:19:18.103Z,100518.20
2018-09-03T10:21:45.875Z,100514.91
2018-09-03T10:24:13.711Z,100513.08
2018-09-03T10:26:41.844Z,100519.11
2018-09-03T10:29:09.632Z,100514.09
2018-09-03T10:31:37.457Z,100512.89
2018-09-03T10:34:05.561Z,100514.78
2018-09-03T10:36:33.415Z,100512.06
2018-09-03T10:39:01.243Z,100515.22
2018-09-03T10:41:29.040Z,100507.62
2018-09-03T10:43:56.852Z,100512.17
2018-09-03T10:46:24.751Z,100505.20
2018-09-03T10:48:52.570Z,100499.86
2018-09-03T10:51:20.351Z,100489.20
2018-09-03T10:53:48.128Z,100488.79
2018-09-03T10:56:15.976Z,100482.27
2018-09-03T10:58:43.737Z,100482.48
2018-09-03T11:01:11.553Z,100483.45
2018-09-03T11:03:39.323Z,100480.75
2018-09-03T11:06:07.139Z,100479.24
2018-09-03T11:08:35.104Z,100485.97
2018-09-03T11:11:02.899Z,100480.11
2018-09-03T11:13:30.850Z,100483.22
2018-09-03T11:15:58.733Z,100484.41
2018-09-03T11:18:27.928Z,100479.04
2018-09-03T11:20:55.706Z,100478.31
2018-09-03T11:23:23.557Z,100485.52
2018-09-03T11:25:51.376Z,100473.72
2018-09-03T11:28:19.168Z,100475.36
2018-09-03T11:30:46.990Z,100477.87
2018-09-03T11:33:14.842Z,100486.03
2018-09-03T11:35:42.926Z,100478.31
2018-09-03T11:38:10.695Z,100470.77
2018-09-03T11:40:38.485Z,100475.91
2018-09-03T11:43:06.388Z,100484.73
2018-09-03T11:45:34.171Z,100482.41
2018-09-03T11:48:02.080Z,100473.80
2018-09-03T11:50:29.911Z,100479.69
2018-09-03T11:52:57.710Z,100480.38
2018-09-03T11:55:25.461Z,100474.52
2018-09-03T11:57:53.277Z,100475.27
2018-09-03T12:00:25.194Z,100482.47
2018-09-03T12:02:52.987Z,100480.79
2018-09-03T12:05:20.776Z,100479.64
2018-09-03T12:07:48.687Z,100469.52
2018-09-03T12:10:16.438Z,100473.77
2018-09-03T12:12:44.224Z,100471.36
2018-09-03T12:16:17.326Z,100471.51
2018-09-03T12:18:45.665Z,100477.91
2018-09-03T12:21:14.202Z,100473.80
2018-09-03T12:23:42.691Z,100465.89
2018-09-03T12:26:10.672Z,100467.64
2018-09-03T12:28:38.497Z,100465.19
2018-09-03T12:31:06.760Z,100468.09
2018-09-03T12:33:34.515Z,100470.20
2018-09-03T12:36:02.784Z,100472.44
2018-09-03T12:38:30.739Z,100472.52
2018-09-03T12:40:58.568Z,100469.02
2018-09-03T12:43:26.561Z,100464.70
2018-09-03T12:46:00.740Z,100466.22
2018-09-03T12:48:29.715Z,100459.62
2018-09-03T12:50:57.848Z,100457.17
2018-09-03T12:53:25.602Z,100453.97
2018-09-03T12:55:53.435Z,100452.22
2018-09-03T12:58:21.269Z,100450.80
2018-09-03T13:00:49.134Z,100458.20
2018-09-03T13:03:16.954Z,100460.49
2018-09-03T13:05:44.748Z,100451.35
2018-09-03T13:08:12.528Z,100450.70
2018-09-03T13:10:40.343Z,100450.91
2018-09-03T13:13:08.191Z,100450.98
2018-09-03T13:15:35.955Z,100453.91
2018-09-03T13:18:10.408Z,100448.61
2018-09-03T13:20:38.181Z,100448.95
2018-09-03T13:23:06.003Z,100447.89
2018-09-03T13:25:33.795Z,100454.09
2018-09-03T13:28:01.613Z,100446.63
2018-09-03T13:30:29.452Z,100441.83
2018-09-03T13:32:57.271Z,100439.67
2018-09-03T13:35:25.414Z,100438.16
2018-09-03T13:37:53.251Z,100439.38
2018-09-03T13:40:21.071Z,100437.87
2018-09-03T13:42:48.831Z,100433.96
2018-09-03T13:45:16.594Z,100428.67
2018-09-03T13:47:44.445Z,100424.91
2018-09-03T13:50:12.167Z,100424.44
2018-09-03T13:52:39.991Z,100424.22
2018-09-03T13:55:07.867Z,100422.59
2018-09-03T13:57:35.604Z,100423.70
2018-09-03T14:00:03.720Z,100431.41
2018-09-03T14:02:31.590Z,100426.97
2018-09-03T14:04:59.462Z,100426.22
2018-09-03T14:07:27.307Z,100417.77
2018-09-03T14:09:55.153Z,100423.30
2018-09-03T14:12:23.014Z,100415.25
2018-09-03T14:14:50.755Z,100418.81
2018-09-03T14:17:18.623Z,100417.86
2018-09-03T14:19:46.448Z,100405.36
2018-09-03T14:22:14.372Z,100411.23
2018-09-03T14:24:42.072Z,100416.69
2018-09-03T14:27:09.887Z,100410.89
2018-09-03T14:29:37.758Z,100411.98
2018-09-03T14:32:05.645Z,100406.18
2018-09-03T14:34:33.385Z,100407.54
2018-09-03T14:37:01.219Z,100399.97
2018-09-03T14:39:28.915Z,100408.67
2018-09-03T14:41:56.775Z,100406.58
2018-09-03T14:44:24.588Z,100406.27
2018-09-03T14:46:52.359Z,100401.09
2018-09-03T14:49:20.201Z,100400.38
2018-09-03T14:51:48.007Z,100397.42
2018-09-03T14:54:15.785Z,100405.28
2018-09-03T14:56:43.689Z,100409.52
2018-09-03T14:59:11.529Z,100402.51
2018-09-03T15:01:39.320Z,100405.41
2018-09-03T15:04:07.216Z,100411.98
2018-09-03T15:06:35.008Z,100413.89
2018-09-03T15:09:04.471Z,100409.89
2018-09-03T15:11:32.195Z,100408.59
2018-09-03T15:14:00.496Z,100403.30
2018-09-03T15:16:30.625Z,100404.45
2018-09-03T15:18:59.283Z,100405.58
2018-09-03T15:21:27.127Z,100396.24
2018-09-03T15:23:54.959Z,100408.19
2018-09-03T15:26:22.777Z,100398.58
2018-09-03T15:28:50.581Z,100400.63
2018-09-03T15:31:18.474Z,100392.33
2018-09-03T15:33:46.358Z,100397.82
2018-09-03T15:36:14.203Z,100397.18
2018-09-03T15:38:42.064Z,100395.58
2018-09-03T15:41:09.920Z,100399.27
2018-09-03T15:43:37.755Z,100398.41
2018-09-03T15:46:06.715Z,100392.28
2018-09-03T15:48:34.625Z,100398.86
2018-09-03T15:51:02.776Z,100389.69
2018-09-03T15:53:30.632Z,100392.25
2018-09-03T15:55:59.921Z,100392.86
2018-09-03T15:58:27.719Z,100396.17
2018-09-03T16:00:55.619Z,100401.69
2018-09-03T16:03:23.463Z,100402.78
2018-09-03T16:05:51.258Z,100394.08
2018-09-03T16:08:19.125Z,100398.51
2018-09-03T16:10:46.887Z,100399.53
2018-09-03T16:13:14.668Z,100398.70
2018-09-03T16:15:42.496Z,100401.45
2018-09-03T16:18:10.298Z,100403.91
2018-09-03T16:20:38.135Z,100403.34
2018-09-03T16:23:06.443Z,100403.75
2018-09-03T16:25:43.127Z,100398.55
2018-09-03T16:28:11.272Z,100399.52
2018-09-03T16:30:39.048Z,100402.22
2018-09-03T16:33:06.860Z,100396.63
2018-09-03T16:35:34.691Z,100396.97
2018-09-03T16:38:02.525Z,100404.82
2018-09-03T16:40:30.293Z,100403.42
2018-09-03T16:42:58.085Z,100407.16
2018-09-03T16:45:25.915Z,100404.47
2018-09-03T16:47:53.727Z,100402.06
2018-09-03T16:50:21.607Z,100397.71
2018-09-03T16:52:50.227Z,100400.20
2018-09-03T16:55:18.885Z,100405.51
2018-09-03T16:57:46.678Z,100402.23
2018-09-03T17:00:15.193Z,100401.65
2018-09-03T17:02:43.428Z,100399.00
2018-09-03T17:05:12.461Z,100396.78
2018-09-03T17:07:41.313Z,100395.73
2018-09-03T17:10:09.295Z,100396.53
2018-09-03T17:12:38.294Z,100395.78
2018-09-03T17:15:06.290Z,100399.15
2018-09-03T17:17:34.127Z,100391.86
2018-09-03T17:20:02.584Z,100389.12
2018-09-03T17:22:30.527Z,100383.79
2018-09-03T17:24:59.267Z,100384.56
2018-09-03T17:27:27.544Z,100383.28
2018-09-03T17:29:56.616Z,100381.84
2018-09-03T17:32:24.647Z,100380.14
2018-09-03T17:34:52.911Z,100387.52
2018-09-03T17:37:21.307Z,100397.85
2018-09-03T17:39:50.279Z,100392.33
2018-09-03T17:42:18.735Z,100404.03
2018-09-03T17:44:47.124Z,100407.20
2018-09-03T17:47:15.762Z,100403.97
2018-09-03T17:49:44.710Z,100407.50
2018-09-03T17:52:12.624Z,100405.39
2018-09-03T17:54:40.383Z,100403.25
2018-09-03T17:57:08.182Z,100406.39
2018-09-03T17:59:35.954Z,100412.42
2018-09-03T18:02:03.791Z,100410.88
2018-09-03T18:04:31.583Z,100412.53
2018-09-03T18:06:59.331Z,100410.70
2018-09-03T18:09:27.139Z,100412.36
2018-09-03T18:11:55.000Z,100413.19
2018-09-03T18:14:22.874Z,100414.17
2018-09-03T18:16:50.639Z,100411.64
2018-09-03T18:19:18.632Z,100410.85
2018-09-03T18:21:46.452Z,100410.16
2018-09-03T18:24:14.224Z,100413.45
2018-09-03T18:26:42.139Z,100408.30
2018-09-03T18:29:09.976Z,100412.66
2018-09-03T18:31:37.836Z,100415.56
2018-09-03T18:34:07.554Z,100416.48
2018-09-03T18:36:35.392Z,100415.50
2018-09-03T18:39:04.284Z,100417.78
2018-09-03T18:41:32.046Z,100413.19
2018-09-03T18:43:59.846Z,100418.75
2018-09-03T18:46:27.649Z,100419.41
2018-09-03T18:48:55.445Z,100426.67
2018-09-03T18:51:23.209Z,100431.69
2018-09-03T18:53:51.002Z,100441.98
2018-09-03T18:56:18.988Z,100441.98
2018-09-03T18:58:46.838Z,100445.30
2018-09-03T19:01:14.912Z,100444.25
2018-09-03T19:03:42.691Z,100445.18
2018-09-03T19:06:11.284Z,100441.00
2018-09-03T19:08:40.383Z,100439.05
2018-09-03T19:11:08.212Z,100445.22
2018-09-03T19:13:36.248Z,100442.59
2018-09-03T19:16:04.461Z,100441.58
2018-09-03T19:18:32.963Z,100441.33
2018-09-03T19:21:01.012Z,100443.61
2018-09-03T19:23:36.612Z,100445.82
2018-09-03T19:26:04.557Z,100447.87
2018-09-03T19:28:32.454Z,100452.91
2018-09-03T19:31:09.489Z,100443.72
2018-09-03T19:33:37.559Z,100438.28
2018-09-03T19:36:05.251Z,100439.52
2018-09-03T19:38:33.959Z,100432.59
2018-09-03T19:41:04.727Z,100434.86
2018-09-03T19:43:36.590Z,100437.67
2018-09-03T19:46:07.624Z,100436.09
2018-09-03T19:48:36.170Z,100439.74
2018-09-03T19:51:04.625Z,100437.84
2018-09-03T19:53:32.425Z,100439.89
2018-09-03T19:56:00.264Z,100437.98
2018-09-03T19:58:28.204Z,100440.86
2018-09-03T20:00:56.016Z,100437.22
2018-09-03T20:03:23.855Z,100433.12
2018-09-03T20:05:51.840Z,100439.83
2018-09-03T20:08:21.366Z,100437.36
2018-09-03T20:10:49.112Z,100434.38
2018-09-03T20:13:17.110Z,100436.69
2018-09-03T20:15:44.915Z,100429.23
2018-09-03T20:18:12.747Z,100434.22
2018-09-03T20:20:40.641Z,100434.83
2018-09-03T20:23:08.443Z,100440.03
2018-09-03T20:25:36.256Z,100439.89
2018-09-03T20:28:04.163Z,100437.08
2018-09-03T20:30:32.525Z,100436.22
2018-09-03T20:33:06.263Z,100426.30
2018-09-03T20:35:35.508Z,100431.02
2018-09-03T20:38:04.211Z,100427.94
2018-09-03T20:40:32.062Z,100430.27
2018-09-03T20:43:06.795Z,100431.88
2018-09-03T20:45:34.771Z,100432.48
2018-09-03T20:48:02.695Z,100430.54
2018-09-03T20:50:30.509Z,100432.18
2018-09-03T20:52:58.328Z,100430.27
2018-09-03T20:55:26.213Z,100427.98
2018-09-03T20:57:54.025Z,100431.88
2018-09-03T21:00:21.784Z,100426.05
2018-09-03T21:02:49.621Z,100428.25
2018-09-03T21:05:17.561Z,100431.36
2018-09-03T21:07:45.362Z,100431.39
2018-09-03T21:10:13.613Z,100440.80
2018-09-03T21:12:42.811Z,100439.14
2018-09-03T21:15:10.579Z,100436.45
2018-09-03T21:17:38.412Z,100439.45
2018-09-03T21:20:06.425Z,100430.09
2018-09-03T21:22:34.324Z,100430.63
2018-09-03T21:25:02.125Z,100436.45
2018-09-03T21:27:29.926Z,100434.55
2018-09-03T21:30:00.048Z,100423.17
2018-09-03T21:32:27.967Z,100424.25
2018-09-03T21:34:55.923Z,100423.47
2018-09-03T21:37:23.859Z,100417.67
2018-09-03T21:39:51.650Z,100424.33
2018-09-03T21:42:19.491Z,100422.42
2018-09-03T21:44:47.324Z,100418.80
2018-09-03T21:47:15.221Z,100422.69
2018-09-03T21:49:43.060Z,100433.23
2018-09-03T21:52:10.858Z,100419.43
2018-09-03T21:54:38.715Z,100429.38
2018-09-03T21:57:06.678Z,100435.19
2018-09-03T21:59:34.423Z,100431.33
2018-09-03T22:02:02.579Z,100437.69
2018-09-03T22:04:30.384Z,100431.62
2018-09-03T22:06:58.219Z,100434.17
2018-09-03T22:09:26.088Z,100431.06
2018-09-03T22:11:53.943Z,100431.62
2018-09-03T22:14:21.845Z,100432.75
2018-09-03T22:16:50.664Z,100430.28
2018-09-03T22:19:18.474Z,100426.66
2018-09-03T22:21:46.277Z,100433.02
2018-09-03T22:24:14.205Z,100425.83
2018-09-03T22:26:42.256Z,100427.21
2018-09-03T22:29:10.036Z,100434.73
2018-09-03T22:31:37.835Z,100425.60
2018-09-03T22:34:05.644Z,100424.77
2018-09-03T22:36:33.575Z,100420.03
2018-09-03T22:39:01.364Z,100414.56
2018-09-03T22:41:29.147Z,100424.28
2018-09-03T22:43:57.020Z,100420.47
2018-09-03T22:46:24.864Z,100417.99
2018-09-03T22:48:52.705Z,100417.50
2018-09-03T22:51:20.503Z,100416.37
2018-09-03T22:53:48.226Z,100412.23
2018-09-03T22:56:15.999Z,100414.50
2018-09-03T22:58:43.786Z,100414.53
2018-09-03T23:01:11.559Z,100414.79
2018-09-03T23:03:39.708Z,100410.11
2018-09-03T23:06:07.590Z,100411.26
2018-09-03T23:08:35.547Z,100411.84
2018-09-03T23:11:03.384Z,100416.55
2018-09-03T23:13:31.182Z,100407.72
2018-09-03T23:15:58.980Z,100405.22
2018-09-03T23:18:26.866Z,100411.07
2018-09-03T23:20:54.741Z,100412.75
2018-09-03T23:23:22.560Z,100413.58
2018-09-03T23:25:50.440Z,100418.57
2018-09-03T23:28:18.236Z,100419.16
2018-09-03T23:30:46.032Z,100414.93
2018-09-03T23:33:13.903Z,100425.46
2018-09-03T23:35:41.787Z,100420.48
2018-09-03T23:38:09.638Z,100425.19
2018-09-03T23:40:37.429Z,100419.91
2018-09-03T23:43:05.315Z,100419.93
2018-09-03T23:45:33.151Z,100411.92
2018-09-03T23:48:01.003Z,100418.28
2018-09-03T23:50:28.896Z,100411.95
2018-09-03T23:52:57.075Z,100407.80
2018-09-03T23:55:24.940Z,100405.06
2018-09-03T23:57:52.828Z,100410.59
